sensor_id;sensor_type;location;lat;lon;timestamp;P1;durP1;ratioP1;P2;durP2;ratioP2
45434;SDS011;31183;47.404;8.500;2023-06-19T00:01:01;10.60;;;9.60;;
45434;SDS011;31183;47.404;8.500;2023-06-19T00:03:27;9.82;;;8.93;;
45434;SDS011;31183;47.404;8.500;2023-06-19T00:05:54;11.93;;;9.73;;
45434;SDS011;31183;47.404;8.500;2023-06-19T00:08:20;9.88;;;8.98;;
45434;SDS011;31183;47.404;8.500;2023-06-19T00:10:47;10.13;;;9.18;;
45434;SDS011;31183;47.404;8.500;2023-06-19T00:13:14;10.68;;;9.63;;
45434;SDS011;31183;47.404;8.500;2023-06-19T00:15:41;10.57;;;9.48;;
45434;SDS011;31183;47.404;8.500;2023-06-19T00:18:07;10.75;;;9.65;;
45434;SDS011;31183;47.404;8.500;2023-06-19T00:20:34;9.73;;;8.82;;
45434;SDS011;31183;47.404;8.500;2023-06-19T00:23:02;16.92;;;9.50;;
45434;SDS011;31183;47.404;8.500;2023-06-19T00:25:28;9.55;;;8.65;;
45434;SDS011;31183;47.404;8.500;2023-06-19T00:27:55;11.23;;;9.80;;
45434;SDS011;31183;47.404;8.500;2023-06-19T00:30:22;10.90;;;9.82;;
45434;SDS011;31183;47.404;8.500;2023-06-19T00:32:49;9.70;;;8.80;;
45434;SDS011;31183;47.404;8.500;2023-06-19T00:35:19;8.98;;;8.20;;
45434;SDS011;31183;47.404;8.500;2023-06-19T00:37:48;10.75;;;9.50;;
45434;SDS011;31183;47.404;8.500;2023-06-19T00:40:30;9.50;;;8.60;;
45434;SDS011;31183;47.404;8.500;2023-06-19T00:42:58;12.30;;;11.20;;
45434;SDS011;31183;47.404;8.500;2023-06-19T00:45:26;9.48;;;8.68;;
45434;SDS011;31183;47.404;8.500;2023-06-19T00:47:54;10.93;;;9.82;;
45434;SDS011;31183;47.404;8.500;2023-06-19T00:50:22;11.30;;;10.23;;
45434;SDS011;31183;47.404;8.500;2023-06-19T00:52:49;10.48;;;9.57;;
45434;SDS011;31183;47.404;8.500;2023-06-19T00:55:16;10.40;;;9.40;;
45434;SDS011;31183;47.404;8.500;2023-06-19T00:57:43;9.65;;;8.75;;
45434;SDS011;31183;47.404;8.500;2023-06-19T01:00:11;8.90;;;8.07;;
45434;SDS011;31183;47.404;8.500;2023-06-19T01:02:39;13.73;;;9.75;;
45434;SDS011;31183;47.404;8.500;2023-06-19T01:05:06;13.00;;;8.80;;
45434;SDS011;31183;47.404;8.500;2023-06-19T01:07:37;10.65;;;9.65;;
45434;SDS011;31183;47.404;8.500;2023-06-19T01:10:13;9.82;;;8.80;;
45434;SDS011;31183;47.404;8.500;2023-06-19T01:13:19;9.73;;;8.93;;
45434;SDS011;31183;47.404;8.500;2023-06-19T01:15:46;12.15;;;8.63;;
45434;SDS011;31183;47.404;8.500;2023-06-19T01:18:14;10.55;;;9.00;;
45434;SDS011;31183;47.404;8.500;2023-06-19T01:20:42;9.77;;;8.90;;
45434;SDS011;31183;47.404;8.500;2023-06-19T01:23:10;12.00;;;9.10;;
45434;SDS011;31183;47.404;8.500;2023-06-19T01:25:38;12.40;;;8.68;;
45434;SDS011;31183;47.404;8.500;2023-06-19T01:28:06;10.57;;;9.52;;
45434;SDS011;31183;47.404;8.500;2023-06-19T01:30:41;10.88;;;9.77;;
45434;SDS011;31183;47.404;8.500;2023-06-19T01:33:15;11.50;;;9.32;;
45434;SDS011;31183;47.404;8.500;2023-06-19T01:35:45;10.82;;;9.48;;
45434;SDS011;31183;47.404;8.500;2023-06-19T01:38:13;10.40;;;9.38;;
45434;SDS011;31183;47.404;8.500;2023-06-19T01:40:41;10.43;;;9.52;;
45434;SDS011;31183;47.404;8.500;2023-06-19T01:43:09;10.82;;;9.73;;
45434;SDS011;31183;47.404;8.500;2023-06-19T01:45:37;9.57;;;8.77;;
45434;SDS011;31183;47.404;8.500;2023-06-19T01:48:04;9.80;;;8.95;;
45434;SDS011;31183;47.404;8.500;2023-06-19T01:50:30;11.27;;;10.15;;
45434;SDS011;31183;47.404;8.500;2023-06-19T01:52:57;11.73;;;10.50;;
45434;SDS011;31183;47.404;8.500;2023-06-19T01:55:24;9.90;;;9.10;;
45434;SDS011;31183;47.404;8.500;2023-06-19T01:57:50;13.13;;;9.30;;
45434;SDS011;31183;47.404;8.500;2023-06-19T02:00:17;12.27;;;9.07;;
45434;SDS011;31183;47.404;8.500;2023-06-19T02:02:44;12.02;;;10.77;;
45434;SDS011;31183;47.404;8.500;2023-06-19T02:05:11;12.05;;;9.55;;
45434;SDS011;31183;47.404;8.500;2023-06-19T02:07:39;10.45;;;9.52;;
45434;SDS011;31183;47.404;8.500;2023-06-19T02:10:06;12.68;;;11.45;;
45434;SDS011;31183;47.404;8.500;2023-06-19T02:12:34;15.98;;;10.77;;
45434;SDS011;31183;47.404;8.500;2023-06-19T02:15:01;16.65;;;11.80;;
45434;SDS011;31183;47.404;8.500;2023-06-19T02:17:27;19.90;;;13.35;;
45434;SDS011;31183;47.404;8.500;2023-06-19T02:19:54;17.77;;;13.05;;
45434;SDS011;31183;47.404;8.500;2023-06-19T02:22:20;17.40;;;12.07;;
45434;SDS011;31183;47.404;8.500;2023-06-19T02:24:47;18.27;;;12.20;;
45434;SDS011;31183;47.404;8.500;2023-06-19T02:27:14;12.25;;;11.00;;
45434;SDS011;31183;47.404;8.500;2023-06-19T02:29:42;14.75;;;11.88;;
45434;SDS011;31183;47.404;8.500;2023-06-19T02:32:08;18.88;;;12.85;;
45434;SDS011;31183;47.404;8.500;2023-06-19T02:34:35;15.60;;;12.88;;
45434;SDS011;31183;47.404;8.500;2023-06-19T02:37:01;14.13;;;11.82;;
45434;SDS011;31183;47.404;8.500;2023-06-19T02:39:29;14.15;;;11.55;;
45434;SDS011;31183;47.404;8.500;2023-06-19T02:41:55;13.40;;;10.95;;
45434;SDS011;31183;47.404;8.500;2023-06-19T02:44:22;14.93;;;12.50;;
45434;SDS011;31183;47.404;8.500;2023-06-19T02:46:48;11.93;;;10.82;;
45434;SDS011;31183;47.404;8.500;2023-06-19T02:49:15;12.20;;;11.10;;
45434;SDS011;31183;47.404;8.500;2023-06-19T02:51:42;11.27;;;10.25;;
45434;SDS011;31183;47.404;8.500;2023-06-19T02:54:08;13.38;;;11.68;;
45434;SDS011;31183;47.404;8.500;2023-06-19T02:56:35;15.27;;;11.82;;
45434;SDS011;31183;47.404;8.500;2023-06-19T02:59:02;12.50;;;11.02;;
45434;SDS011;31183;47.404;8.500;2023-06-19T03:01:28;11.40;;;10.40;;
45434;SDS011;31183;47.404;8.500;2023-06-19T03:03:55;12.27;;;11.05;;
45434;SDS011;31183;47.404;8.500;2023-06-19T03:06:22;11.57;;;10.50;;
45434;SDS011;31183;47.404;8.500;2023-06-19T03:08:49;17.13;;;10.95;;
45434;SDS011;31183;47.404;8.500;2023-06-19T03:11:15;11.57;;;10.55;;
45434;SDS011;31183;47.404;8.500;2023-06-19T03:13:47;10.95;;;9.88;;
45434;SDS011;31183;47.404;8.500;2023-06-19T03:16:17;12.75;;;11.45;;
45434;SDS011;31183;47.404;8.500;2023-06-19T03:18:45;12.02;;;10.93;;
45434;SDS011;31183;47.404;8.500;2023-06-19T03:21:16;12.18;;;11.07;;
45434;SDS011;31183;47.404;8.500;2023-06-19T03:23:45;12.85;;;11.65;;
45434;SDS011;31183;47.404;8.500;2023-06-19T03:26:12;13.63;;;12.23;;
45434;SDS011;31183;47.404;8.500;2023-06-19T03:28:38;12.50;;;11.38;;
45434;SDS011;31183;47.404;8.500;2023-06-19T03:31:05;17.65;;;11.07;;
45434;SDS011;31183;47.404;8.500;2023-06-19T03:33:32;13.80;;;11.27;;
45434;SDS011;31183;47.404;8.500;2023-06-19T03:35:59;16.75;;;12.40;;
45434;SDS011;31183;47.404;8.500;2023-06-19T03:38:25;14.20;;;10.95;;
45434;SDS011;31183;47.404;8.500;2023-06-19T03:40:52;13.20;;;11.82;;
45434;SDS011;31183;47.404;8.500;2023-06-19T03:43:18;12.45;;;10.45;;
45434;SDS011;31183;47.404;8.500;2023-06-19T03:45:45;12.75;;;11.43;;
45434;SDS011;31183;47.404;8.500;2023-06-19T03:48:12;14.60;;;13.13;;
45434;SDS011;31183;47.404;8.500;2023-06-19T03:50:39;14.07;;;12.80;;
45434;SDS011;31183;47.404;8.500;2023-06-19T03:53:05;14.80;;;13.32;;
45434;SDS011;31183;47.404;8.500;2023-06-19T03:55:32;14.70;;;13.20;;
45434;SDS011;31183;47.404;8.500;2023-06-19T03:57:59;13.35;;;12.05;;
45434;SDS011;31183;47.404;8.500;2023-06-19T04:00:26;12.35;;;11.23;;
45434;SDS011;31183;47.404;8.500;2023-06-19T04:02:53;15.13;;;13.63;;
45434;SDS011;31183;47.404;8.500;2023-06-19T04:05:19;14.52;;;13.07;;
45434;SDS011;31183;47.404;8.500;2023-06-19T04:07:46;15.45;;;13.32;;
45434;SDS011;31183;47.404;8.500;2023-06-19T04:10:13;13.23;;;11.88;;
45434;SDS011;31183;47.404;8.500;2023-06-19T04:12:40;14.90;;;12.07;;
45434;SDS011;31183;47.404;8.500;2023-06-19T04:15:07;13.38;;;11.43;;
45434;SDS011;31183;47.404;8.500;2023-06-19T04:17:35;18.52;;;13.90;;
45434;SDS011;31183;47.404;8.500;2023-06-19T04:20:02;14.95;;;13.55;;
45434;SDS011;31183;47.404;8.500;2023-06-19T04:22:38;15.73;;;12.88;;
45434;SDS011;31183;47.404;8.500;2023-06-19T04:25:08;11.23;;;10.07;;
45434;SDS011;31183;47.404;8.500;2023-06-19T04:27:36;12.82;;;10.82;;
45434;SDS011;31183;47.404;8.500;2023-06-19T04:30:03;14.23;;;12.70;;
45434;SDS011;31183;47.404;8.500;2023-06-19T04:32:33;21.08;;;13.45;;
45434;SDS011;31183;47.404;8.500;2023-06-19T04:35:01;16.08;;;14.38;;
45434;SDS011;31183;47.404;8.500;2023-06-19T04:37:27;14.82;;;13.40;;
45434;SDS011;31183;47.404;8.500;2023-06-19T04:39:54;16.70;;;14.88;;
45434;SDS011;31183;47.404;8.500;2023-06-19T04:42:22;13.93;;;12.63;;
45434;SDS011;31183;47.404;8.500;2023-06-19T04:44:48;10.90;;;9.90;;
45434;SDS011;31183;47.404;8.500;2023-06-19T04:47:16;12.77;;;11.50;;
45434;SDS011;31183;47.404;8.500;2023-06-19T04:49:44;14.32;;;12.93;;
45434;SDS011;31183;47.404;8.500;2023-06-19T04:52:11;13.43;;;10.95;;
45434;SDS011;31183;47.404;8.500;2023-06-19T04:54:38;11.13;;;9.00;;
45434;SDS011;31183;47.404;8.500;2023-06-19T04:57:04;10.85;;;9.75;;
45434;SDS011;31183;47.404;8.500;2023-06-19T04:59:32;9.90;;;9.00;;
45434;SDS011;31183;47.404;8.500;2023-06-19T05:01:59;12.23;;;9.32;;
45434;SDS011;31183;47.404;8.500;2023-06-19T05:04:26;10.98;;;9.88;;
45434;SDS011;31183;47.404;8.500;2023-06-19T05:06:53;11.05;;;9.90;;
45434;SDS011;31183;47.404;8.500;2023-06-19T05:09:20;9.50;;;8.60;;
45434;SDS011;31183;47.404;8.500;2023-06-19T05:11:46;10.70;;;9.60;;
45434;SDS011;31183;47.404;8.500;2023-06-19T05:14:13;10.05;;;9.05;;
45434;SDS011;31183;47.404;8.500;2023-06-19T05:16:40;10.45;;;9.43;;
45434;SDS011;31183;47.404;8.500;2023-06-19T05:19:07;10.43;;;9.35;;
45434;SDS011;31183;47.404;8.500;2023-06-19T05:21:34;10.50;;;8.63;;
45434;SDS011;31183;47.404;8.500;2023-06-19T05:24:01;10.88;;;9.27;;
45434;SDS011;31183;47.404;8.500;2023-06-19T05:26:27;9.20;;;8.10;;
45434;SDS011;31183;47.404;8.500;2023-06-19T05:28:54;10.27;;;9.27;;
45434;SDS011;31183;47.404;8.500;2023-06-19T05:31:21;11.75;;;8.80;;
45434;SDS011;31183;47.404;8.500;2023-06-19T05:33:47;25.60;;;11.05;;
45434;SDS011;31183;47.404;8.500;2023-06-19T05:36:14;14.18;;;12.40;;
45434;SDS011;31183;47.404;8.500;2023-06-19T05:38:41;15.27;;;13.68;;
45434;SDS011;31183;47.404;8.500;2023-06-19T05:41:07;14.25;;;12.27;;
45434;SDS011;31183;47.404;8.500;2023-06-19T05:43:34;15.05;;;13.60;;
45434;SDS011;31183;47.404;8.500;2023-06-19T05:46:01;15.30;;;13.27;;
45434;SDS011;31183;47.404;8.500;2023-06-19T05:48:28;16.05;;;14.45;;
45434;SDS011;31183;47.404;8.500;2023-06-19T05:50:55;14.02;;;12.63;;
45434;SDS011;31183;47.404;8.500;2023-06-19T05:53:22;17.23;;;13.88;;
45434;SDS011;31183;47.404;8.500;2023-06-19T05:55:49;15.90;;;14.32;;
45434;SDS011;31183;47.404;8.500;2023-06-19T05:58:16;18.45;;;14.23;;
45434;SDS011;31183;47.404;8.500;2023-06-19T06:00:46;15.40;;;13.82;;
45434;SDS011;31183;47.404;8.500;2023-06-19T06:03:13;15.52;;;14.00;;
45434;SDS011;31183;47.404;8.500;2023-06-19T06:05:40;13.27;;;12.07;;
45434;SDS011;31183;47.404;8.500;2023-06-19T06:08:07;19.02;;;14.23;;
45434;SDS011;31183;47.404;8.500;2023-06-19T06:10:33;12.93;;;11.05;;
45434;SDS011;31183;47.404;8.500;2023-06-19T06:13:00;14.73;;;12.00;;
45434;SDS011;31183;47.404;8.500;2023-06-19T06:15:26;14.23;;;12.05;;
45434;SDS011;31183;47.404;8.500;2023-06-19T06:17:53;13.40;;;12.07;;
45434;SDS011;31183;47.404;8.500;2023-06-19T06:20:20;18.90;;;14.02;;
45434;SDS011;31183;47.404;8.500;2023-06-19T06:22:47;15.20;;;13.70;;
45434;SDS011;31183;47.404;8.500;2023-06-19T06:25:13;15.25;;;13.70;;
45434;SDS011;31183;47.404;8.500;2023-06-19T06:27:40;13.00;;;11.65;;
45434;SDS011;31183;47.404;8.500;2023-06-19T06:30:07;17.40;;;14.10;;
45434;SDS011;31183;47.404;8.500;2023-06-19T06:32:34;14.98;;;13.43;;
45434;SDS011;31183;47.404;8.500;2023-06-19T06:35:01;14.93;;;13.23;;
45434;SDS011;31183;47.404;8.500;2023-06-19T06:37:28;14.15;;;12.68;;
45434;SDS011;31183;47.404;8.500;2023-06-19T06:39:54;14.35;;;11.95;;
45434;SDS011;31183;47.404;8.500;2023-06-19T06:42:21;15.50;;;12.48;;
45434;SDS011;31183;47.404;8.500;2023-06-19T06:44:47;12.57;;;11.05;;
45434;SDS011;31183;47.404;8.500;2023-06-19T06:47:14;13.13;;;11.80;;
45434;SDS011;31183;47.404;8.500;2023-06-19T06:49:41;14.10;;;12.60;;
45434;SDS011;31183;47.404;8.500;2023-06-19T06:52:07;14.60;;;13.07;;
45434;SDS011;31183;47.404;8.500;2023-06-19T06:54:34;12.88;;;10.80;;
45434;SDS011;31183;47.404;8.500;2023-06-19T06:57:01;14.77;;;13.30;;
45434;SDS011;31183;47.404;8.500;2023-06-19T06:59:28;12.77;;;11.50;;
45434;SDS011;31183;47.404;8.500;2023-06-19T07:01:54;14.63;;;12.25;;
45434;SDS011;31183;47.404;8.500;2023-06-19T07:04:22;13.73;;;12.40;;
45434;SDS011;31183;47.404;8.500;2023-06-19T07:06:49;12.18;;;11.18;;
45434;SDS011;31183;47.404;8.500;2023-06-19T07:09:16;13.20;;;11.95;;
45434;SDS011;31183;47.404;8.500;2023-06-19T07:11:42;13.65;;;12.25;;
45434;SDS011;31183;47.404;8.500;2023-06-19T07:14:09;10.68;;;9.75;;
45434;SDS011;31183;47.404;8.500;2023-06-19T07:16:36;12.52;;;11.35;;
45434;SDS011;31183;47.404;8.500;2023-06-19T07:19:02;13.73;;;12.52;;
45434;SDS011;31183;47.404;8.500;2023-06-19T07:21:29;14.68;;;13.13;;
45434;SDS011;31183;47.404;8.500;2023-06-19T07:23:56;13.07;;;11.88;;
45434;SDS011;31183;47.404;8.500;2023-06-19T07:26:24;13.20;;;11.93;;
45434;SDS011;31183;47.404;8.500;2023-06-19T07:28:50;13.77;;;12.52;;
45434;SDS011;31183;47.404;8.500;2023-06-19T07:31:17;15.15;;;13.77;;
45434;SDS011;31183;47.404;8.500;2023-06-19T07:33:43;14.75;;;13.45;;
45434;SDS011;31183;47.404;8.500;2023-06-19T07:36:10;15.73;;;14.10;;
45434;SDS011;31183;47.404;8.500;2023-06-19T07:38:40;15.07;;;13.68;;
45434;SDS011;31183;47.404;8.500;2023-06-19T07:41:11;15.55;;;14.15;;
45434;SDS011;31183;47.404;8.500;2023-06-19T07:43:37;15.02;;;13.60;;
45434;SDS011;31183;47.404;8.500;2023-06-19T07:46:04;15.30;;;13.98;;
45434;SDS011;31183;47.404;8.500;2023-06-19T07:48:31;14.20;;;12.90;;
45434;SDS011;31183;47.404;8.500;2023-06-19T07:50:57;18.35;;;14.23;;
45434;SDS011;31183;47.404;8.500;2023-06-19T07:53:24;15.73;;;13.98;;
45434;SDS011;31183;47.404;8.500;2023-06-19T07:55:51;15.55;;;14.07;;
45434;SDS011;31183;47.404;8.500;2023-06-19T07:58:18;14.20;;;12.98;;
45434;SDS011;31183;47.404;8.500;2023-06-19T08:00:45;25.27;;;15.75;;
45434;SDS011;31183;47.404;8.500;2023-06-19T08:03:11;16.75;;;13.75;;
45434;SDS011;31183;47.404;8.500;2023-06-19T08:05:38;14.32;;;12.85;;
45434;SDS011;31183;47.404;8.500;2023-06-19T08:08:05;13.65;;;12.55;;
45434;SDS011;31183;47.404;8.500;2023-06-19T08:10:32;11.98;;;10.88;;
45434;SDS011;31183;47.404;8.500;2023-06-19T08:12:59;12.95;;;11.80;;
45434;SDS011;31183;47.404;8.500;2023-06-19T08:15:25;13.85;;;11.52;;
45434;SDS011;31183;47.404;8.500;2023-06-19T08:17:52;12.25;;;11.15;;
45434;SDS011;31183;47.404;8.500;2023-06-19T08:20:20;10.18;;;9.35;;
45434;SDS011;31183;47.404;8.500;2023-06-19T08:22:47;10.85;;;9.95;;
45434;SDS011;31183;47.404;8.500;2023-06-19T08:25:14;11.93;;;10.88;;
45434;SDS011;31183;47.404;8.500;2023-06-19T08:27:41;9.68;;;8.75;;
45434;SDS011;31183;47.404;8.500;2023-06-19T08:30:08;12.55;;;11.32;;
45434;SDS011;31183;47.404;8.500;2023-06-19T08:32:34;12.18;;;11.05;;
45434;SDS011;31183;47.404;8.500;2023-06-19T08:35:01;12.20;;;11.00;;
45434;SDS011;31183;47.404;8.500;2023-06-19T08:37:29;12.23;;;11.32;;
45434;SDS011;31183;47.404;8.500;2023-06-19T08:39:55;12.63;;;11.63;;
45434;SDS011;31183;47.404;8.500;2023-06-19T08:42:22;12.90;;;10.35;;
45434;SDS011;31183;47.404;8.500;2023-06-19T08:44:49;12.32;;;11.30;;
45434;SDS011;31183;47.404;8.500;2023-06-19T08:47:16;12.65;;;11.60;;
45434;SDS011;31183;47.404;8.500;2023-06-19T08:49:42;11.85;;;10.77;;
45434;SDS011;31183;47.404;8.500;2023-06-19T08:52:09;12.30;;;11.27;;
45434;SDS011;31183;47.404;8.500;2023-06-19T08:54:36;12.30;;;11.05;;
45434;SDS011;31183;47.404;8.500;2023-06-19T08:57:10;14.35;;;11.52;;
45434;SDS011;31183;47.404;8.500;2023-06-19T08:59:38;11.85;;;10.75;;
45434;SDS011;31183;47.404;8.500;2023-06-19T09:02:05;14.25;;;12.75;;
45434;SDS011;31183;47.404;8.500;2023-06-19T09:04:32;11.55;;;10.38;;
45434;SDS011;31183;47.404;8.500;2023-06-19T09:07:03;12.52;;;11.35;;
45434;SDS011;31183;47.404;8.500;2023-06-19T09:09:30;11.20;;;9.50;;
45434;SDS011;31183;47.404;8.500;2023-06-19T09:12:00;11.95;;;10.98;;
45434;SDS011;31183;47.404;8.500;2023-06-19T09:14:45;11.32;;;10.32;;
45434;SDS011;31183;47.404;8.500;2023-06-19T09:17:18;10.00;;;9.13;;
45434;SDS011;31183;47.404;8.500;2023-06-19T09:19:47;10.93;;;9.95;;
45434;SDS011;31183;47.404;8.500;2023-06-19T09:22:15;11.32;;;10.32;;
45434;SDS011;31183;47.404;8.500;2023-06-19T09:24:44;11.15;;;10.25;;
45434;SDS011;31183;47.404;8.500;2023-06-19T09:27:14;10.82;;;9.93;;
45434;SDS011;31183;47.404;8.500;2023-06-19T09:29:46;11.55;;;10.48;;
45434;SDS011;31183;47.404;8.500;2023-06-19T09:32:14;10.70;;;9.85;;
45434;SDS011;31183;47.404;8.500;2023-06-19T09:34:42;10.40;;;9.38;;
45434;SDS011;31183;47.404;8.500;2023-06-19T09:37:09;13.75;;;10.93;;
45434;SDS011;31183;47.404;8.500;2023-06-19T09:39:37;9.68;;;8.88;;
45434;SDS011;31183;47.404;8.500;2023-06-19T09:42:06;11.93;;;10.73;;
45434;SDS011;31183;47.404;8.500;2023-06-19T09:44:40;10.33;;;9.33;;
45434;SDS011;31183;47.404;8.500;2023-06-19T09:47:19;13.18;;;11.93;;
45434;SDS011;31183;47.404;8.500;2023-06-19T09:49:53;11.57;;;10.38;;
45434;SDS011;31183;47.404;8.500;2023-06-19T09:52:21;12.55;;;10.63;;
45434;SDS011;31183;47.404;8.500;2023-06-19T09:54:50;12.05;;;10.98;;
45434;SDS011;31183;47.404;8.500;2023-06-19T09:57:17;12.80;;;11.68;;
45434;SDS011;31183;47.404;8.500;2023-06-19T09:59:46;11.85;;;10.75;;
45434;SDS011;31183;47.404;8.500;2023-06-19T10:02:16;10.48;;;9.63;;
45434;SDS011;31183;47.404;8.500;2023-06-19T10:04:53;11.80;;;10.90;;
45434;SDS011;31183;47.404;8.500;2023-06-19T10:07:22;11.98;;;10.90;;
45434;SDS011;31183;47.404;8.500;2023-06-19T10:12:44;11.25;;;10.00;;
45434;SDS011;31183;47.404;8.500;2023-06-19T10:15:15;10.65;;;9.65;;
45434;SDS011;31183;47.404;8.500;2023-06-19T10:20:28;12.07;;;9.85;;
45434;SDS011;31183;47.404;8.500;2023-06-19T10:23:10;13.35;;;10.88;;
45434;SDS011;31183;47.404;8.500;2023-06-19T10:25:39;11.53;;;10.40;;
45434;SDS011;31183;47.404;8.500;2023-06-19T10:28:19;10.43;;;9.40;;
45434;SDS011;31183;47.404;8.500;2023-06-19T10:30:58;10.10;;;9.23;;
45434;SDS011;31183;47.404;8.500;2023-06-19T10:33:27;11.57;;;10.60;;
45434;SDS011;31183;47.404;8.500;2023-06-19T10:35:55;10.73;;;9.15;;
45434;SDS011;31183;47.404;8.500;2023-06-19T10:38:22;10.52;;;9.52;;
45434;SDS011;31183;47.404;8.500;2023-06-19T10:40:48;9.98;;;9.18;;
45434;SDS011;31183;47.404;8.500;2023-06-19T10:43:22;10.20;;;9.30;;
45434;SDS011;31183;47.404;8.500;2023-06-19T10:45:51;10.30;;;9.40;;
45434;SDS011;31183;47.404;8.500;2023-06-19T10:48:23;10.65;;;9.15;;
45434;SDS011;31183;47.404;8.500;2023-06-19T10:50:51;10.68;;;9.73;;
45434;SDS011;31183;47.404;8.500;2023-06-19T10:53:24;11.27;;;10.18;;
45434;SDS011;31183;47.404;8.500;2023-06-19T10:55:58;11.32;;;9.48;;
45434;SDS011;31183;47.404;8.500;2023-06-19T10:58:26;10.57;;;9.60;;
45434;SDS011;31183;47.404;8.500;2023-06-19T11:00:54;9.98;;;9.13;;
45434;SDS011;31183;47.404;8.500;2023-06-19T11:03:21;11.15;;;10.15;;
45434;SDS011;31183;47.404;8.500;2023-06-19T11:05:48;9.85;;;9.05;;
45434;SDS011;31183;47.404;8.500;2023-06-19T11:08:19;9.93;;;9.07;;
45434;SDS011;31183;47.404;8.500;2023-06-19T11:10:47;10.65;;;9.77;;
45434;SDS011;31183;47.404;8.500;2023-06-19T11:13:17;10.23;;;9.23;;
45434;SDS011;31183;47.404;8.500;2023-06-19T11:15:45;8.63;;;7.82;;
45434;SDS011;31183;47.404;8.500;2023-06-19T11:18:16;9.00;;;8.20;;
45434;SDS011;31183;47.404;8.500;2023-06-19T11:20:44;8.93;;;8.13;;
45434;SDS011;31183;47.404;8.500;2023-06-19T11:23:12;9.05;;;8.35;;
45434;SDS011;31183;47.404;8.500;2023-06-19T11:25:40;9.93;;;8.88;;
45434;SDS011;31183;47.404;8.500;2023-06-19T11:28:11;9.07;;;8.30;;
45434;SDS011;31183;47.404;8.500;2023-06-19T11:30:48;10.32;;;9.25;;
45434;SDS011;31183;47.404;8.500;2023-06-19T11:33:23;8.95;;;8.20;;
45434;SDS011;31183;47.404;8.500;2023-06-19T11:35:51;9.23;;;8.27;;
45434;SDS011;31183;47.404;8.500;2023-06-19T11:38:22;7.18;;;6.68;;
45434;SDS011;31183;47.404;8.500;2023-06-19T11:40:51;8.93;;;7.45;;
45434;SDS011;31183;47.404;8.500;2023-06-19T11:43:27;16.70;;;9.52;;
45434;SDS011;31183;47.404;8.500;2023-06-19T11:46:05;8.82;;;8.00;;
45434;SDS011;31183;47.404;8.500;2023-06-19T11:48:36;8.90;;;8.20;;
45434;SDS011;31183;47.404;8.500;2023-06-19T11:51:04;7.80;;;7.20;;
45434;SDS011;31183;47.404;8.500;2023-06-19T11:53:30;7.95;;;7.25;;
45434;SDS011;31183;47.404;8.500;2023-06-19T11:55:57;9.55;;;6.60;;
45434;SDS011;31183;47.404;8.500;2023-06-19T11:58:24;8.52;;;7.28;;
45434;SDS011;31183;47.404;8.500;2023-06-19T12:00:50;8.15;;;7.38;;
45434;SDS011;31183;47.404;8.500;2023-06-19T12:03:19;8.25;;;7.47;;
45434;SDS011;31183;47.404;8.500;2023-06-19T12:05:46;8.05;;;7.32;;
45434;SDS011;31183;47.404;8.500;2023-06-19T12:08:13;9.00;;;7.30;;
45434;SDS011;31183;47.404;8.500;2023-06-19T12:10:39;7.75;;;7.05;;
45434;SDS011;31183;47.404;8.500;2023-06-19T12:13:06;8.48;;;7.68;;
45434;SDS011;31183;47.404;8.500;2023-06-19T12:15:33;8.10;;;7.40;;
45434;SDS011;31183;47.404;8.500;2023-06-19T12:18:03;7.82;;;7.18;;
45434;SDS011;31183;47.404;8.500;2023-06-19T12:20:30;10.50;;;7.82;;
45434;SDS011;31183;47.404;8.500;2023-06-19T12:22:56;8.30;;;7.50;;
45434;SDS011;31183;47.404;8.500;2023-06-19T12:25:23;8.13;;;7.47;;
45434;SDS011;31183;47.404;8.500;2023-06-19T12:27:49;9.75;;;6.80;;
45434;SDS011;31183;47.404;8.500;2023-06-19T12:30:20;7.43;;;6.82;;
45434;SDS011;31183;47.404;8.500;2023-06-19T12:32:47;7.90;;;7.20;;
45434;SDS011;31183;47.404;8.500;2023-06-19T12:35:15;8.68;;;7.00;;
45434;SDS011;31183;47.404;8.500;2023-06-19T12:37:42;7.72;;;6.97;;
45434;SDS011;31183;47.404;8.500;2023-06-19T12:40:09;7.72;;;7.10;;
45434;SDS011;31183;47.404;8.500;2023-06-19T12:42:37;7.80;;;7.10;;
45434;SDS011;31183;47.404;8.500;2023-06-19T12:45:03;8.23;;;7.53;;
45434;SDS011;31183;47.404;8.500;2023-06-19T12:47:30;8.13;;;7.32;;
45434;SDS011;31183;47.404;8.500;2023-06-19T12:49:58;8.13;;;7.05;;
45434;SDS011;31183;47.404;8.500;2023-06-19T12:52:24;7.85;;;7.20;;
45434;SDS011;31183;47.404;8.500;2023-06-19T12:54:51;8.45;;;7.75;;
45434;SDS011;31183;47.404;8.500;2023-06-19T12:57:18;8.10;;;7.38;;
45434;SDS011;31183;47.404;8.500;2023-06-19T12:59:44;9.07;;;7.97;;
45434;SDS011;31183;47.404;8.500;2023-06-19T13:02:11;8.05;;;7.25;;
45434;SDS011;31183;47.404;8.500;2023-06-19T13:04:40;10.35;;;7.75;;
45434;SDS011;31183;47.404;8.500;2023-06-19T13:07:07;10.43;;;7.20;;
45434;SDS011;31183;47.404;8.500;2023-06-19T13:09:34;8.68;;;7.95;;
45434;SDS011;31183;47.404;8.500;2023-06-19T13:12:02;7.97;;;7.18;;
45434;SDS011;31183;47.404;8.500;2023-06-19T13:14:29;7.13;;;6.53;;
45434;SDS011;31183;47.404;8.500;2023-06-19T13:16:57;7.93;;;7.13;;
45434;SDS011;31183;47.404;8.500;2023-06-19T13:19:24;8.68;;;7.25;;
45434;SDS011;31183;47.404;8.500;2023-06-19T13:21:51;8.23;;;7.50;;
45434;SDS011;31183;47.404;8.500;2023-06-19T13:24:18;8.85;;;7.15;;
45434;SDS011;31183;47.404;8.500;2023-06-19T13:26:45;7.28;;;6.68;;
45434;SDS011;31183;47.404;8.500;2023-06-19T13:29:11;8.20;;;6.65;;
45434;SDS011;31183;47.404;8.500;2023-06-19T13:31:38;7.60;;;7.00;;
45434;SDS011;31183;47.404;8.500;2023-06-19T13:34:05;7.88;;;7.13;;
45434;SDS011;31183;47.404;8.500;2023-06-19T13:36:31;7.13;;;6.43;;
45434;SDS011;31183;47.404;8.500;2023-06-19T13:38:58;13.27;;;8.10;;
45434;SDS011;31183;47.404;8.500;2023-06-19T13:41:25;9.50;;;7.07;;
45434;SDS011;31183;47.404;8.500;2023-06-19T13:43:53;8.85;;;7.40;;
45434;SDS011;31183;47.404;8.500;2023-06-19T13:46:20;8.25;;;7.53;;
45434;SDS011;31183;47.404;8.500;2023-06-19T13:48:48;8.68;;;7.05;;
45434;SDS011;31183;47.404;8.500;2023-06-19T13:51:17;7.95;;;7.25;;
45434;SDS011;31183;47.404;8.500;2023-06-19T13:53:45;9.02;;;7.53;;
45434;SDS011;31183;47.404;8.500;2023-06-19T13:56:12;8.82;;;7.28;;
45434;SDS011;31183;47.404;8.500;2023-06-19T13:58:39;7.28;;;6.57;;
45434;SDS011;31183;47.404;8.500;2023-06-19T14:01:06;6.93;;;6.35;;
45434;SDS011;31183;47.404;8.500;2023-06-19T14:03:33;7.80;;;7.05;;
45434;SDS011;31183;47.404;8.500;2023-06-19T14:06:03;9.13;;;7.53;;
45434;SDS011;31183;47.404;8.500;2023-06-19T14:08:30;9.00;;;7.07;;
45434;SDS011;31183;47.404;8.500;2023-06-19T14:10:56;7.32;;;6.18;;
45434;SDS011;31183;47.404;8.500;2023-06-19T14:13:23;11.80;;;9.00;;
45434;SDS011;31183;47.404;8.500;2023-06-19T14:15:50;10.68;;;7.78;;
45434;SDS011;31183;47.404;8.500;2023-06-19T14:18:18;7.82;;;7.00;;
45434;SDS011;31183;47.404;8.500;2023-06-19T14:20:45;14.38;;;8.25;;
45434;SDS011;31183;47.404;8.500;2023-06-19T14:23:12;8.02;;;7.18;;
45434;SDS011;31183;47.404;8.500;2023-06-19T14:25:38;8.32;;;7.53;;
45434;SDS011;31183;47.404;8.500;2023-06-19T14:28:09;7.38;;;6.68;;
45434;SDS011;31183;47.404;8.500;2023-06-19T14:30:36;7.80;;;7.07;;
45434;SDS011;31183;47.404;8.500;2023-06-19T14:33:03;8.27;;;7.57;;
45434;SDS011;31183;47.404;8.500;2023-06-19T14:35:29;10.85;;;7.18;;
45434;SDS011;31183;47.404;8.500;2023-06-19T14:37:56;7.75;;;6.88;;
45434;SDS011;31183;47.404;8.500;2023-06-19T14:40:23;7.90;;;7.20;;